Time;durP1;ratioP1;P1;durP2;ratioP2;P2;SDS_P1;SDS_P2;PMS_P1;PMS_P2;Temp;Humidity;BMP_temperature;BMP_pressure;BME280_temperature;BME280_humidity;BME280_pressure;Samples;Min_cycle;Max_cycle;Signal;HPM_P1;HPM_P2
2021/11/30 00:03:48;;;;;;;1.17;0.40;;;5.90;99.90;;;;;;20648967;28;21978;-44
2021/11/30 00:13:49;;;;;;;2.40;0.50;;;6.00;99.90;;;;;;20654955;28;20033;-44
2021/11/30 00:23:50;;;;;;;0.45;0.22;;;6.10;99.90;;;;;;20656361;28;20037;-44
2021/11/30 00:33:52;;;;;;;1.80;0.35;;;6.00;99.90;;;;;;20652273;28;20038;-44
2021/11/30 00:43:55;;;;;;;1.45;0.20;;;5.80;99.90;;;;;;20651420;28;20054;-44
2021/11/30 00:53:56;;;;;;;4.50;0.57;;;5.60;99.90;;;;;;20652145;28;22207;-43
2021/11/30 01:03:58;;;;;;;2.15;0.38;;;5.50;99.90;;;;;;20646837;28;20041;-44
2021/11/30 01:14:00;;;;;;;0.95;0.30;;;5.40;99.90;;;;;;20650287;28;20046;-44
2021/11/30 01:24:02;;;;;;;1.10;0.38;;;5.30;99.90;;;;;;20647477;28;20053;-44
2021/11/30 01:34:04;;;;;;;0.85;0.28;;;5.20;99.90;;;;;;20647522;28;20045;-44
2021/11/30 01:44:10;;;;;;;3.30;0.95;;;5.00;99.90;;;;;;20645401;28;20405;-44
2021/11/30 01:54:12;;;;;;;;;;;4.80;99.90;;;;;;20651919;28;20076;-44
2021/11/30 02:04:14;;;;;;;4.28;1.98;;;4.60;99.90;;;;;;20646245;28;19921;-45
2021/11/30 02:14:16;;;;;;;2.28;1.00;;;4.60;99.90;;;;;;20646840;28;20038;-45
2021/11/30 02:24:17;;;;;;;2.85;1.20;;;4.60;99.90;;;;;;20645359;28;20044;-45
2021/11/30 02:34:18;;;;;;;2.63;1.20;;;4.80;99.90;;;;;;20639703;28;20046;-45
2021/11/30 02:44:22;;;;;;;2.13;1.08;;;5.00;99.90;;;;;;20649464;28;20537;-45
2021/11/30 02:54:23;;;;;;;2.90;1.10;;;5.10;99.90;;;;;;20655522;28;20509;-45
2021/11/30 03:04:25;;;;;;;3.85;1.13;;;5.20;99.90;;;;;;20666675;28;20053;-45
2021/11/30 03:14:28;;;;;;;2.60;0.85;;;5.40;99.90;;;;;;20671097;28;20042;-45
2021/11/30 03:24:30;;;;;;;4.13;1.52;;;5.80;99.90;;;;;;20667457;28;20481;-45
2021/11/30 03:34:34;;;;;;;1.50;0.90;;;6.00;99.90;;;;;;20666069;28;20516;-46
2021/11/30 03:44:35;;;;;;;1.25;0.50;;;6.30;99.90;;;;;;20665803;28;20033;-45
2021/11/30 03:54:37;;;;;;;3.33;1.30;;;7.20;99.90;;;;;;20603029;28;20131;-45
2021/11/30 04:04:42;;;;;;;3.75;1.00;;;7.60;99.90;;;;;;20584005;28;20046;-44
2021/11/30 04:14:47;;;;;;;8.10;2.22;;;8.00;99.90;;;;;;20592416;28;20085;-44
2021/11/30 04:24:48;;;;;;;3.97;1.70;;;8.20;99.90;;;;;;20667759;28;20041;-44
2021/11/30 04:34:49;;;;;;;6.13;2.65;;;8.30;99.90;;;;;;20663124;28;20390;-44
2021/11/30 04:44:58;;;;;;;4.03;1.45;;;8.40;99.90;;;;;;20665818;28;20449;-45
2021/11/30 04:54:59;;;;;;;4.68;2.10;;;8.50;99.90;;;;;;20667418;28;20497;-45
2021/11/30 05:05:01;;;;;;;3.10;0.98;;;8.70;99.90;;;;;;20667194;28;20042;-45
2021/11/30 05:15:04;;;;;;;3.95;1.35;;;8.70;99.90;;;;;;20628312;28;20140;-44
2021/11/30 05:25:07;;;;;;;6.05;1.20;;;8.80;99.90;;;;;;20588921;28;20046;-45
2021/11/30 05:35:09;;;;;;;7.00;1.77;;;8.90;99.90;;;;;;20585491;28;20045;-44
2021/11/30 05:45:10;;;;;;;3.55;1.13;;;8.90;99.90;;;;;;20659008;28;20042;-44
2021/11/30 05:55:12;;;;;;;3.55;1.23;;;9.00;99.90;;;;;;20660981;28;20042;-44
2021/11/30 06:05:13;;;;;;;5.68;2.63;;;9.10;99.90;;;;;;20660050;28;20049;-44
2021/11/30 06:15:14;;;;;;;5.00;1.95;;;9.10;99.90;;;;;;20638414;28;20046;-45
2021/11/30 06:25:16;;;;;;;3.97;1.30;;;9.10;99.90;;;;;;20656744;28;20061;-44
2021/11/30 06:35:17;;;;;;;5.07;1.65;;;9.10;99.90;;;;;;20655821;28;20058;-44
2021/11/30 06:45:18;;;;;;;2.53;1.10;;;9.20;99.90;;;;;;20648532;28;20057;-44
2021/11/30 06:55:19;;;;;;;5.50;1.55;;;9.20;99.90;;;;;;20654359;28;20415;-44
2021/11/30 07:05:32;;;;;;;14.55;1.40;;;9.30;99.90;;;;;;20581942;28;20406;-44
2021/11/30 07:15:34;;;;;;;2.38;0.82;;;9.30;99.90;;;;;;20575257;28;20414;-44
2021/11/30 07:25:35;;;;;;;2.53;0.88;;;9.40;99.90;;;;;;20575760;28;20043;-44
2021/11/30 07:35:36;;;;;;;1.45;0.55;;;9.40;99.90;;;;;;20586827;28;20062;-44
2021/11/30 07:45:37;;;;;;;2.92;0.57;;;9.50;99.90;;;;;;20674046;28;20038;-45
2021/11/30 07:55:39;;;;;;;6.78;0.88;;;9.70;99.90;;;;;;20667265;28;20066;-44
2021/11/30 08:05:41;;;;;;;4.03;0.82;;;9.60;99.90;;;;;;20675412;28;20525;-45
2021/11/30 08:15:42;;;;;;;0.63;0.20;;;9.70;99.90;;;;;;20678790;28;20049;-44
2021/11/30 08:25:43;;;;;;;2.85;0.63;;;9.70;99.90;;;;;;20676936;28;20049;-45
2021/11/30 08:35:46;;;;;;;4.80;0.38;;;9.80;99.90;;;;;;20667289;28;20513;-45
2021/11/30 08:45:48;;;;;;;6.45;0.63;;;9.80;99.90;;;;;;20668599;28;20050;-45
2021/11/30 08:55:50;;;;;;;1.92;0.52;;;9.80;99.90;;;;;;20668962;28;20054;-44
2021/11/30 09:05:51;;;;;;;1.50;0.60;;;9.90;99.90;;;;;;20667909;28;20038;-45
2021/11/30 09:15:52;;;;;;;2.42;0.70;;;10.00;99.90;;;;;;20666742;28;20038;-45
2021/11/30 09:25:54;;;;;;;1.40;0.52;;;10.00;99.90;;;;;;20669918;28;20034;-45
2021/11/30 09:35:55;;;;;;;1.95;0.82;;;10.10;99.90;;;;;;20661449;28;20034;-45
2021/11/30 09:45:57;;;;;;;2.47;1.27;;;10.10;99.90;;;;;;20662072;28;20532;-45
2021/11/30 09:55:58;;;;;;;3.78;0.63;;;10.10;99.90;;;;;;20662905;28;20053;-45
2021/11/30 10:05:59;;;;;;;3.38;0.88;;;10.10;99.90;;;;;;20655205;28;20367;-45
2021/11/30 10:16:05;;;;;;;2.10;0.70;;;10.10;99.90;;;;;;20663010;28;20068;-46
2021/11/30 10:26:08;;;;;;;0.98;0.50;;;9.90;99.90;;;;;;20656016;28;20045;-48
2021/11/30 10:36:13;;;;;;;1.00;0.60;;;9.70;99.90;;;;;;20641043;28;20065;-47
2021/11/30 10:46:29;;;;;;;1.98;0.52;;;9.50;99.90;;;;;;20627012;28;20049;-47
2021/11/30 10:56:30;;;;;;;2.00;0.70;;;9.40;99.90;;;;;;20595123;28;20053;-45
2021/11/30 11:06:33;;;;;;;2.97;0.80;;;9.30;99.90;;;;;;20601762;28;20085;-48
2021/11/30 11:16:37;;;;;;;1.13;0.40;;;9.30;99.90;;;;;;20662464;28;20053;-46
2021/11/30 11:26:47;;;;;;;1.10;0.45;;;9.30;99.90;;;;;;20672974;28;20037;-46
2021/11/30 11:36:50;;;;;;;1.35;0.70;;;9.20;99.90;;;;;;20658024;28;20317;-47
2021/11/30 11:46:57;;;;;;;2.20;0.85;;;9.30;99.90;;;;;;20675986;28;20045;-47
2021/11/30 11:57:01;;;;;;;;;;;9.30;99.90;;;;;;20625066;28;20058;-48
2021/11/30 12:07:02;;;;;;;5.68;0.82;;;9.40;99.90;;;;;;20577564;28;19917;-48
2021/11/30 12:17:12;;;;;;;1.08;0.50;;;9.70;99.90;;;;;;20670342;28;21314;-46
2021/11/30 12:27:22;;;;;;;1.55;0.80;;;9.70;99.90;;;;;;20680484;28;20034;-46
2021/11/30 12:37:26;;;;;;;2.67;0.75;;;9.70;99.90;;;;;;20640688;28;20061;-47
2021/11/30 12:47:28;;;;;;;9.48;0.90;;;10.00;99.90;;;;;;20620536;28;20068;-46
2021/11/30 12:57:31;;;;;;;1.20;0.47;;;10.20;99.90;;;;;;20661358;28;20050;-46
2021/11/30 13:07:33;;;;;;;4.65;0.90;;;10.30;99.90;;;;;;20596044;28;20093;-45
2021/11/30 13:17:35;;;;;;;4.53;1.20;;;10.40;99.90;;;;;;20627058;28;20057;-45
2021/11/30 13:27:36;;;;;;;3.70;0.80;;;10.40;99.90;;;;;;20669010;28;20113;-45
2021/11/30 13:37:44;;;;;;;4.05;1.00;;;10.40;99.90;;;;;;20636788;28;20491;-45
2021/11/30 13:47:51;;;;;;;7.32;1.98;;;10.40;99.90;;;;;;20647747;28;20034;-45
2021/11/30 13:57:52;;;;;;;5.85;1.48;;;10.40;99.90;;;;;;20666215;28;20042;-45
2021/11/30 14:07:55;;;;;;;4.72;0.70;;;10.50;99.90;;;;;;20644818;28;20054;-45
2021/11/30 14:18:09;;;;;;;4.03;1.08;;;10.50;99.90;;;;;;20631184;28;20042;-45
2021/11/30 14:28:16;;;;;;;3.90;0.80;;;10.40;99.90;;;;;;20630264;28;20042;-45
2021/11/30 14:38:38;;;;;;;1.25;0.45;;;10.30;99.90;;;;;;20621009;28;1291777;-46
2021/11/30 14:48:43;;;;;;;1.00;0.30;;;10.00;99.90;;;;;;20663740;28;20461;-50
2021/11/30 14:58:46;;;;;;;1.77;0.55;;;9.70;99.90;;;;;;20677374;28;20529;-46
2021/11/30 15:08:57;;;;;;;2.63;0.77;;;9.60;99.90;;;;;;20658743;28;20053;-46
2021/11/30 15:19:09;;;;;;;4.93;1.13;;;9.40;99.90;;;;;;20663263;28;20049;-46
2021/11/30 15:29:13;;;;;;;2.88;1.02;;;9.40;99.90;;;;;;20652716;28;20037;-48
2021/11/30 15:39:16;;;;;;;3.13;0.95;;;9.30;99.90;;;;;;20625287;28;20042;-47
2021/11/30 15:49:18;;;;;;;4.50;0.80;;;9.30;99.90;;;;;;20621783;28;20106;-46
2021/11/30 15:59:19;;;;;;;3.10;1.05;;;9.30;99.90;;;;;;20631552;28;20038;-46
2021/11/30 16:09:21;;;;;;;6.97;2.38;;;9.20;99.90;;;;;;20651079;28;20041;-45
2021/11/30 16:19:23;;;;;;;5.43;2.45;;;9.10;99.90;;;;;;20666398;28;20045;-46
2021/11/30 16:29:24;;;;;;;9.75;2.67;;;9.10;99.90;;;;;;20661758;28;20034;-46
2021/11/30 16:39:26;;;;;;;7.13;2.90;;;9.20;99.90;;;;;;20643286;28;20053;-46
2021/11/30 16:49:29;;;;;;;7.05;2.88;;;9.20;99.90;;;;;;20669613;28;20045;-45
2021/11/30 16:59:31;;;;;;;6.65;2.65;;;9.20;99.90;;;;;;20672618;28;20077;-46
2021/11/30 17:09:32;;;;;;;5.45;2.00;;;9.30;99.90;;;;;;20668046;28;20057;-47
2021/11/30 17:19:33;;;;;;;4.30;1.42;;;9.40;99.90;;;;;;20671298;28;20053;-46
2021/11/30 17:29:34;;;;;;;2.08;0.68;;;9.50;99.90;;;;;;20678681;28;20049;-48
2021/11/30 17:39:36;;;;;;;3.30;0.98;;;9.80;99.90;;;;;;20676962;28;20081;-47
2021/11/30 17:49:38;;;;;;;7.22;1.85;;;9.70;99.90;;;;;;20674800;28;20052;-47
2021/11/30 17:59:40;;;;;;;10.68;2.30;;;9.70;99.90;;;;;;20669444;28;20066;-46
2021/11/30 18:09:43;;;;;;;4.95;2.20;;;9.90;99.90;;;;;;20673307;28;20042;-46
2021/11/30 18:19:44;;;;;;;6.07;2.55;;;9.90;99.90;;;;;;20669621;28;20038;-47
2021/11/30 18:29:48;;;;;;;5.85;3.60;;;10.00;99.90;;;;;;20674984;28;20046;-47
2021/11/30 18:39:49;;;;;;;11.63;3.08;;;10.20;99.90;;;;;;20673431;28;20054;-47
2021/11/30 18:49:50;;;;;;;10.75;3.95;;;10.20;99.90;;;;;;20669848;28;20041;-46
2021/11/30 18:59:52;;;;;;;9.48;3.85;;;10.20;99.90;;;;;;20662620;28;20050;-46
2021/11/30 19:09:53;;;;;;;7.25;3.53;;;10.30;99.90;;;;;;20664728;28;20046;-46
2021/11/30 19:19:54;;;;;;;9.02;3.88;;;10.10;99.90;;;;;;20660387;28;20520;-46
2021/11/30 19:29:55;;;;;;;6.10;2.80;;;10.20;99.90;;;;;;20665686;28;20041;-46
2021/11/30 19:39:56;;;;;;;6.28;2.65;;;10.20;99.90;;;;;;20678611;28;20065;-46
2021/11/30 19:49:57;;;;;;;6.97;2.70;;;10.20;99.90;;;;;;20670772;28;20034;-45
2021/11/30 20:00:08;;;;;;;9.07;3.22;;;10.20;99.90;;;;;;20678806;28;20892;-46
2021/11/30 20:10:09;;;;;;;8.85;3.80;;;10.10;99.90;;;;;;20673269;28;20054;-45
2021/11/30 20:20:10;;;;;;;9.82;4.55;;;10.10;99.90;;;;;;20677604;28;20038;-45
2021/11/30 20:30:12;;;;;;;11.55;4.03;;;10.10;99.90;;;;;;20679113;28;20045;-45
2021/11/30 20:40:14;;;;;;;9.90;3.45;;;10.20;99.90;;;;;;20677621;28;20133;-45
2021/11/30 20:50:15;;;;;;;11.55;4.38;;;10.20;99.90;;;;;;20673448;28;20046;-45
2021/11/30 21:00:17;;;;;;;14.55;4.13;;;10.10;99.90;;;;;;20672137;28;20514;-45
2021/11/30 21:10:20;;;;;;;17.63;3.67;;;10.10;99.90;;;;;;20672852;28;20060;-46
2021/11/30 21:20:23;;;;;;;8.43;4.20;;;10.10;99.90;;;;;;20668391;28;20054;-46
2021/11/30 21:30:25;;;;;;;7.32;3.67;;;10.10;99.90;;;;;;20659849;28;20042;-45
2021/11/30 21:40:30;;;;;;;11.15;3.33;;;10.00;99.90;;;;;;20653446;28;20054;-45
2021/11/30 21:50:31;;;;;;;11.57;3.92;;;10.00;99.90;;;;;;20649323;28;20045;-45
2021/11/30 22:00:33;;;;;;;5.95;2.72;;;10.00;99.90;;;;;;20644062;28;20038;-45
2021/11/30 22:10:35;;;;;;;10.68;2.88;;;10.10;99.90;;;;;;20559294;28;20142;-45
2021/11/30 22:20:36;;;;;;;9.20;3.00;;;10.10;99.90;;;;;;20577058;28;20038;-45
2021/11/30 22:30:41;;;;;;;7.28;3.20;;;10.00;99.90;;;;;;20570172;28;20383;-45
2021/11/30 22:40:42;;;;;;;11.00;2.30;;;10.00;99.90;;;;;;20612150;28;20050;-45
2021/11/30 22:50:43;;;;;;;5.00;1.80;;;10.00;99.90;;;;;;20652541;28;20076;-45
2021/11/30 23:00:47;;;;;;;9.95;1.73;;;10.20;99.90;;;;;;20657228;28;20060;-45
2021/11/30 23:10:49;;;;;;;3.63;1.52;;;10.20;99.90;;;;;;20660682;28;20034;-45
2021/11/30 23:20:54;;;;;;;2.45;1.20;;;10.30;99.90;;;;;;20663401;28;20042;-45
2021/11/30 23:31:05;;;;;;;2.90;0.60;;;10.30;99.90;;;;;;20655815;28;20038;-45
2021/11/30 23:41:09;;;;;;;6.70;0.70;;;10.40;99.90;;;;;;20657156;28;20738;-45
2021/11/30 23:51:11;;;;;;;2.08;0.40;;;10.40;99.90;;;;;;20653018;28;20041;-45
